Time;durP1;ratioP1;P1;durP2;ratioP2;P2;SDS_P1;SDS_P2;PMS_P1;PMS_P2;Temp;Humidity;BMP_temperature;BMP_pressure;BME280_temperature;BME280_humidity;BME280_pressure;Samples;Min_cycle;Max_cycle;Signal;HPM_P1;HPM_P2
2021/09/29 00:00:54;;;;;;;7.22;3.20;;;;;;;16.35;56.27;101627.78;4971694;28;115134;-65
2021/09/29 00:03:21;;;;;;;7.35;3.00;;;;;;;16.34;56.45;101626.03;4971360;28;124286;-65
2021/09/29 00:05:48;;;;;;;6.35;2.90;;;;;;;16.33;56.33;101618.94;4972408;28;123826;-65
2021/09/29 00:08:15;;;;;;;4.40;2.78;;;;;;;16.32;56.31;101617.25;4966405;28;114435;-65
2021/09/29 00:10:42;;;;;;;6.38;3.03;;;;;;;16.32;56.34;101617.25;4963961;28;114302;-65
2021/09/29 00:13:10;;;;;;;11.20;3.10;;;;;;;16.31;56.52;101610.16;4971344;28;124313;-64
2021/09/29 00:15:37;;;;;;;4.90;3.00;;;;;;;16.32;56.67;101617.25;4974218;28;123840;-65
2021/09/29 00:18:04;;;;;;;4.97;3.10;;;;;;;16.33;56.64;101610.94;4970206;28;114557;-64
2021/09/29 00:20:32;;;;;;;4.82;3.10;;;;;;;16.32;56.39;101607.41;4959803;28;114547;-63
2021/09/29 00:22:59;;;;;;;8.32;2.90;;;;;;;16.32;56.38;101601.19;4971978;28;124038;-63
2021/09/29 00:25:27;;;;;;;7.10;2.85;;;;;;;16.31;56.51;101604.81;4972134;28;124646;-63
2021/09/29 00:27:54;;;;;;;6.35;3.00;;;;;;;16.28;56.38;101599.66;4954290;28;114338;-62
2021/09/29 00:30:21;;;;;;;6.32;2.75;;;;;;;16.27;56.61;101592.56;4970711;28;114344;-62
2021/09/29 00:32:48;;;;;;;9.05;3.22;;;;;;;16.27;56.52;101592.56;4970999;28;124022;-62
2021/09/29 00:35:16;;;;;;;8.20;3.30;;;;;;;16.26;56.51;101590.88;4955372;28;122694;-62
2021/09/29 00:37:43;;;;;;;7.63;3.42;;;;;;;16.25;56.58;101583.78;4972937;28;114389;-62
2021/09/29 00:40:11;;;;;;;8.00;3.10;;;;;;;16.25;56.56;101581.13;4971148;28;113817;-62
2021/09/29 00:42:38;;;;;;;6.95;3.30;;;;;;;16.23;56.65;101575.00;4955992;28;124054;-62
2021/09/29 00:45:06;;;;;;;7.40;3.33;;;;;;;16.23;56.80;101564.31;4973831;28;123593;-62
2021/09/29 00:47:34;;;;;;;5.93;3.40;;;;;;;16.22;56.76;101563.44;4955166;28;114157;-62
2021/09/29 00:50:04;;;;;;;7.22;3.50;;;;;;;16.23;56.75;101553.59;4954384;28;114795;-62
2021/09/29 00:52:32;;;;;;;6.40;3.22;;;;;;;16.23;56.69;101556.28;4956018;28;123782;-62
2021/09/29 00:55:00;;;;;;;7.78;3.58;;;;;;;16.23;56.75;101558.97;4972688;28;123737;-62
2021/09/29 00:57:27;;;;;;;8.90;3.60;;;;;;;16.23;56.87;101553.59;4959653;28;114305;-62
2021/09/29 00:59:54;;;;;;;7.68;3.50;;;;;;;16.22;56.73;101547.41;4970297;28;113064;-63
2021/09/29 01:02:22;;;;;;;8.05;3.95;;;;;;;16.22;56.73;101547.41;4971205;28;123916;-62
2021/09/29 01:04:50;;;;;;;6.38;3.08;;;;;;;16.21;56.69;101539.47;4958690;28;123933;-64
2021/09/29 01:07:24;;;;;;;7.65;3.50;;;;;;;16.20;56.81;101543.09;4959829;28;114662;-63
2021/09/29 01:10:10;;;;;;;6.80;3.55;;;;;;;16.18;56.84;101542.31;4951819;28;113914;-64
2021/09/29 01:12:50;;;;;;;6.30;3.42;;;;;;;16.16;56.74;101526.34;4957273;28;124155;-63
2021/09/29 01:15:27;;;;;;;7.63;3.33;;;;;;;16.15;56.88;101519.31;4958894;28;123907;-63
2021/09/29 01:18:09;;;;;;;7.30;3.75;;;;;;;16.13;56.67;101522.06;4950364;28;113455;-63
2021/09/29 01:20:45;;;;;;;7.68;3.28;;;;;;;16.11;56.88;101512.44;4959675;28;114419;-63
2021/09/29 01:23:28;;;;;;;5.88;3.55;;;;;;;16.10;56.73;101516.03;4950800;28;124103;-67
2021/09/29 01:25:58;;;;;;;6.40;3.45;;;;;;;16.08;56.63;101508.09;4945770;28;123401;-67
2021/09/29 01:28:37;;;;;;;8.00;4.10;;;;;;;16.06;56.78;101504.66;4971936;28;114354;-66
2021/09/29 01:31:06;;;;;;;7.88;3.90;;;;;;;16.04;56.93;101501.22;4963819;28;114279;-66
2021/09/29 01:33:34;;;;;;;6.65;3.95;;;;;;;16.04;56.88;101500.34;4967593;28;124806;-65
2021/09/29 01:36:02;;;;;;;8.30;3.85;;;;;;;16.03;57.02;101488.81;4963143;28;124566;-66
2021/09/29 01:38:31;;;;;;;5.65;3.72;;;;;;;16.03;56.97;101490.59;4962419;28;115504;-65
2021/09/29 01:40:58;;;;;;;7.13;3.65;;;;;;;16.02;56.97;101489.75;4956518;28;115592;-65
2021/09/29 01:43:28;;;;;;;6.07;3.47;;;;;;;16.02;57.04;101487.09;4958429;28;124108;-65
2021/09/29 01:45:56;;;;;;;8.40;3.65;;;;;;;16.02;57.22;101487.09;4968868;28;123861;-65
2021/09/29 01:48:23;;;;;;;7.95;4.10;;;;;;;16.02;57.03;101476.41;4954933;28;113227;-65
2021/09/29 01:50:58;;;;;;;7.57;3.75;;;;;;;16.00;57.09;101478.28;4955930;28;113872;-65
2021/09/29 01:53:31;;;;;;;7.68;3.60;;;;;;;15.99;56.88;101481.91;4970083;28;123863;-65
2021/09/29 01:55:58;;;;;;;7.47;4.10;;;;;;;15.96;57.17;101482.09;4954569;28;124001;-65
2021/09/29 01:58:31;;;;;;;9.65;4.00;;;;;;;15.94;57.17;101462.63;4969642;28;114382;-65
2021/09/29 02:00:58;;;;;;;7.50;4.18;;;;;;;15.94;57.18;101474.16;4954743;28;113032;-64
2021/09/29 02:03:26;;;;;;;7.13;3.90;;;;;;;15.94;57.24;101467.97;4971022;28;124120;-64
2021/09/29 02:05:53;;;;;;;7.78;4.15;;;;;;;15.93;57.17;101460.91;4953990;28;122722;-65
2021/09/29 02:08:20;;;;;;;9.82;4.05;;;;;;;15.91;57.16;101447.63;4969608;28;114103;-66
2021/09/29 02:10:47;;;;;;;6.65;3.70;;;;;;;15.91;57.26;101441.44;4952784;28;114510;-65
2021/09/29 02:13:14;;;;;;;7.00;3.95;;;;;;;15.90;57.22;101439.72;4970604;28;124118;-65
2021/09/29 02:15:42;;;;;;;9.68;4.10;;;;;;;15.88;57.20;101441.59;4959573;28;124446;-65
2021/09/29 02:18:09;;;;;;;9.35;3.92;;;;;;;15.87;57.20;101434.53;4968227;28;114389;-65
2021/09/29 02:20:36;;;;;;;6.32;3.95;;;;;;;15.85;57.32;101431.09;4972465;28;113834;-65
2021/09/29 02:23:03;;;;;;;10.93;3.90;;;;;;;15.82;57.40;101432.13;4953842;28;123542;-65
2021/09/29 02:25:30;;;;;;;6.57;3.90;;;;;;;15.82;57.45;101431.28;4970501;28;124629;-65
2021/09/29 02:27:58;;;;;;;8.70;4.32;;;;;;;15.81;57.27;101434.91;4969165;28;115715;-65
2021/09/29 02:30:25;;;;;;;9.35;4.57;;;;;;;15.80;57.26;101411.81;4958608;28;115159;-65
2021/09/29 02:32:52;;;;;;;8.60;4.15;;;;;;;15.78;57.31;101419.91;4955201;28;122947;-63
2021/09/29 02:35:19;;;;;;;7.90;4.28;;;;;;;15.75;57.31;101415.59;4971801;28;126731;-64
2021/09/29 02:37:47;;;;;;;9.60;4.40;;;;;;;15.74;57.38;101413.88;4969631;28;114336;-63
2021/09/29 02:40:15;;;;;;;8.00;4.32;;;;;;;15.72;57.47;101410.41;4969709;28;114562;-63
2021/09/29 02:42:42;;;;;;;7.38;3.83;;;;;;;15.70;57.36;101404.28;4970685;28;124129;-63
2021/09/29 02:45:10;;;;;;;9.13;4.22;;;;;;;15.67;57.39;101401.81;4971531;28;124532;-63
2021/09/29 02:47:37;;;;;;;9.32;4.00;;;;;;;15.66;57.38;101402.75;4969483;28;114362;-63
2021/09/29 02:50:05;;;;;;;7.25;4.60;;;;;;;15.62;57.48;101387.84;4971686;28;114076;-63
2021/09/29 02:52:32;;;;;;;7.00;4.43;;;;;;;15.61;57.55;101386.13;4951819;28;124762;-63
2021/09/29 02:55:00;;;;;;;8.50;4.35;;;;;;;15.62;57.59;101392.34;4954202;28;122821;-64
2021/09/29 02:57:27;;;;;;;11.57;4.43;;;;;;;15.60;57.65;101395.09;4939361;28;114172;-63
2021/09/29 02:59:54;;;;;;;9.65;4.65;;;;;;;15.58;57.60;101389.00;4970520;28;114387;-64
2021/09/29 03:02:21;;;;;;;7.90;4.35;;;;;;;15.60;57.74;101388.91;4969182;28;124102;-65
2021/09/29 03:04:48;;;;;;;10.85;4.57;;;;;;;15.59;57.54;101393.34;4968322;28;123975;-64
2021/09/29 03:07:16;;;;;;;9.00;4.40;;;;;;;15.58;57.72;101380.97;4952361;28;114747;-63
2021/09/29 03:09:43;;;;;;;10.77;4.20;;;;;;;15.59;57.50;101377.34;4969010;28;114039;-63
2021/09/29 03:12:10;;;;;;;9.60;4.38;;;;;;;15.60;57.70;101367.53;4953909;28;123079;-63
2021/09/29 03:14:37;;;;;;;9.13;4.40;;;;;;;15.59;57.60;101372.00;4966200;28;123961;-64
2021/09/29 03:17:04;;;;;;;7.97;4.20;;;;;;;15.59;57.59;101372.00;4944268;28;115835;-64
2021/09/29 03:19:31;;;;;;;10.60;4.30;;;;;;;15.59;57.57;101369.31;4971985;28;115314;-63
2021/09/29 03:22:01;;;;;;;8.73;4.45;;;;;;;15.59;57.83;101372.00;4966063;28;124678;-63
2021/09/29 03:24:29;;;;;;;7.75;4.53;;;;;;;15.60;57.78;101362.19;4966942;28;123909;-63
2021/09/29 03:26:56;;;;;;;8.93;4.20;;;;;;;15.60;57.81;101368.41;4962571;28;114822;-63
2021/09/29 03:29:23;;;;;;;8.75;4.00;;;;;;;15.60;57.85;101363.06;4972168;28;114534;-64
2021/09/29 03:31:50;;;;;;;9.45;4.18;;;;;;;15.61;57.88;101358.56;4961372;28;123903;-65
2021/09/29 03:34:17;;;;;;;7.03;4.18;;;;;;;15.60;57.72;101355.03;4973157;28;124187;-66
2021/09/29 03:36:45;;;;;;;9.75;4.05;;;;;;;15.60;57.71;101340.84;4974432;28;114153;-66
2021/09/29 03:39:12;;;;;;;6.68;3.80;;;;;;;15.60;57.78;101341.69;4970979;28;114062;-66
2021/09/29 03:41:39;;;;;;;6.35;3.55;;;;;;;15.60;57.83;101336.34;4971627;28;124851;-66
2021/09/29 03:44:07;;;;;;;9.02;4.30;;;;;;;15.59;57.80;101331.94;4960232;28;124257;-66
2021/09/29 03:46:34;;;;;;;9.20;4.15;;;;;;;15.60;57.97;101341.69;4974185;28;113562;-66
2021/09/29 03:49:03;;;;;;;5.82;3.78;;;;;;;15.64;58.10;101331.69;4957864;28;114763;-66
2021/09/29 03:51:30;;;;;;;7.07;3.53;;;;;;;15.66;58.08;101333.31;4972085;28;123880;-66
2021/09/29 03:53:58;;;;;;;7.88;3.75;;;;;;;15.68;58.14;101331.41;4954045;28;124549;-66
2021/09/29 03:56:25;;;;;;;9.70;3.95;;;;;;;15.72;58.11;101330.28;4954658;28;114328;-66
2021/09/29 03:58:52;;;;;;;8.02;3.85;;;;;;;15.75;58.20;101315.94;4956650;28;112795;-66
2021/09/29 04:01:19;;;;;;;8.90;4.07;;;;;;;15.79;58.21;101311.28;4960215;28;124124;-66
2021/09/29 04:03:46;;;;;;;7.55;3.47;;;;;;;15.83;58.36;101304.78;4963803;28;124661;-66
2021/09/29 04:06:14;;;;;;;6.25;3.50;;;;;;;15.86;58.26;101304.59;4968694;28;115308;-64
2021/09/29 04:08:41;;;;;;;8.00;3.88;;;;;;;15.89;58.42;101309.75;4960687;28;115376;-63
2021/09/29 04:11:09;;;;;;;8.30;3.47;;;;;;;15.91;58.25;101307.84;4974203;28;123964;-64
2021/09/29 04:13:37;;;;;;;8.85;3.63;;;;;;;15.94;58.49;101307.69;4965545;28;124582;-63
2021/09/29 04:16:04;;;;;;;6.47;3.40;;;;;;;15.99;58.26;101310.06;4955814;28;114290;-63
2021/09/29 04:18:32;;;;;;;6.70;3.15;;;;;;;16.01;58.25;101309.03;4971314;28;114664;-63
2021/09/29 04:20:59;;;;;;;9.05;4.20;;;;;;;16.01;58.16;101314.38;4958638;28;124098;-64
2021/09/29 04:23:26;;;;;;;7.13;3.55;;;;;;;16.03;58.41;101312.47;4967898;28;124347;-65
2021/09/29 04:25:53;;;;;;;6.10;3.30;;;;;;;16.04;58.28;101307.97;4966569;28;114312;-65
2021/09/29 04:28:21;;;;;;;7.13;3.45;;;;;;;16.06;58.25;101311.41;4957076;28;114443;-64
2021/09/29 04:30:48;;;;;;;6.85;3.63;;;;;;;16.07;58.24;101305.97;4972160;28;124633;-63
2021/09/29 04:33:15;;;;;;;8.52;3.63;;;;;;;16.07;58.28;101308.66;4969076;28;124397;-63
2021/09/29 04:35:42;;;;;;;7.90;3.60;;;;;;;16.09;58.25;101301.41;4962113;28;114882;-63
2021/09/29 04:38:10;;;;;;;6.93;3.50;;;;;;;16.10;58.37;101308.44;4973526;28;114231;-63
2021/09/29 04:40:38;;;;;;;5.75;3.35;;;;;;;16.12;58.28;101306.56;4970637;28;124475;-63
2021/09/29 04:43:05;;;;;;;6.45;3.42;;;;;;;16.12;58.30;101306.56;4963361;28;123775;-63
2021/09/29 04:45:32;;;;;;;7.72;3.15;;;;;;;16.13;58.28;101302.94;4966855;28;114110;-62
2021/09/29 04:48:04;;;;;;;7.90;3.38;;;;;;;16.15;58.41;101306.38;4972170;28;114147;-62
2021/09/29 04:50:31;;;;;;;8.63;3.25;;;;;;;16.18;58.34;101299.13;4947403;28;124104;-63
2021/09/29 04:52:58;;;;;;;8.27;3.10;;;;;;;16.21;58.41;101305.13;4965932;28;123979;-63
2021/09/29 04:55:26;;;;;;;5.38;2.97;;;;;;;16.24;58.41;101309.44;4931864;28;114441;-62
2021/09/29 04:57:53;;;;;;;6.63;2.88;;;;;;;16.26;58.50;101307.53;4967007;28;114745;-65
2021/09/29 05:00:20;;;;;;;6.13;2.65;;;;;;;16.28;58.33;101300.28;4962640;28;124682;-62
2021/09/29 05:02:49;;;;;;;6.15;2.70;;;;;;;16.31;58.61;101305.41;4972622;28;124668;-62
2021/09/29 05:05:16;;;;;;;8.13;2.85;;;;;;;16.33;58.65;101306.19;4952928;28;113479;-62
2021/09/29 05:07:50;;;;;;;8.75;2.70;;;;;;;16.34;58.44;101310.59;4966366;28;114345;-62
2021/09/29 05:10:25;;;;;;;8.90;3.28;;;;;;;16.35;58.52;101296.28;4969976;28;124275;-64
2021/09/29 05:12:52;;;;;;;5.53;2.70;;;;;;;16.37;58.51;101298.84;4970199;28;124680;-64
2021/09/29 05:15:19;;;;;;;6.07;2.58;;;;;;;16.36;58.57;101292.63;4952492;28;114554;-63
2021/09/29 05:17:46;;;;;;;6.43;2.75;;;;;;;16.39;58.54;101289.78;4966307;28;114858;-64
2021/09/29 05:20:14;;;;;;;5.80;2.63;;;;;;;16.39;58.55;101292.47;4971988;28;123933;-64
2021/09/29 05:22:41;;;;;;;6.00;2.38;;;;;;;16.39;58.67;101292.47;4958019;28;124770;-63
2021/09/29 05:25:09;;;;;;;3.83;2.60;;;;;;;16.38;58.61;101282.69;4965838;28;114748;-64
2021/09/29 05:27:36;;;;;;;3.78;2.40;;;;;;;16.37;58.84;101289.03;4965041;28;114940;-64
2021/09/29 05:30:06;;;;;;;4.53;2.58;;;;;;;16.37;58.74;101286.34;4969290;28;124161;-64
2021/09/29 05:32:33;;;;;;;6.55;2.70;;;;;;;16.37;58.83;101294.38;4961771;28;123886;-64
2021/09/29 05:35:00;;;;;;;4.97;2.63;;;;;;;16.37;59.02;101283.69;4967152;28;115065;-63
2021/09/29 05:37:27;;;;;;;5.72;2.65;;;;;;;16.37;58.85;101283.69;4970591;28;113887;-63
2021/09/29 05:39:54;;;;;;;5.68;2.60;;;;;;;16.37;58.85;101280.13;4971549;28;123645;-62
2021/09/29 05:42:21;;;;;;;7.03;2.63;;;;;;;16.37;58.91;101283.69;4970677;28;124254;-63
2021/09/29 05:44:48;;;;;;;4.38;2.25;;;;;;;16.37;59.00;101281.00;4971474;28;116119;-63
2021/09/29 05:47:15;;;;;;;6.53;2.65;;;;;;;16.36;59.17;101276.59;4955591;28;115345;-62
2021/09/29 05:49:42;;;;;;;7.70;2.53;;;;;;;16.36;59.01;101273.91;4968625;28;124743;-63
2021/09/29 05:52:10;;;;;;;4.43;2.40;;;;;;;16.34;59.11;101273.16;4970092;28;124649;-63
2021/09/29 05:54:38;;;;;;;6.28;2.42;;;;;;;16.35;59.16;101288.25;4955973;28;114150;-63
2021/09/29 05:57:05;;;;;;;5.07;2.40;;;;;;;16.34;59.29;101279.34;4973659;28;113777;-63
2021/09/29 05:59:32;;;;;;;4.43;2.30;;;;;;;16.35;59.20;101280.25;4969313;28;124629;-63
2021/09/29 06:01:59;;;;;;;5.55;2.30;;;;;;;16.33;59.30;101274.97;4953290;28;123533;-63
2021/09/29 06:04:27;;;;;;;4.63;2.65;;;;;;;16.34;59.31;101273.16;4971206;28;114605;-65
2021/09/29 06:06:55;;;;;;;4.13;2.15;;;;;;;16.34;59.55;101278.50;4964485;28;114454;-63
2021/09/29 06:09:22;;;;;;;4.22;2.40;;;;;;;16.34;59.37;101278.50;4965603;28;124107;-65
2021/09/29 06:11:50;;;;;;;3.50;2.20;;;;;;;16.33;59.30;101283.00;4972140;28;124081;-65
2021/09/29 06:14:17;;;;;;;5.32;2.63;;;;;;;16.34;59.50;101278.50;4970092;28;114639;-65
2021/09/29 06:16:46;;;;;;;4.63;2.03;;;;;;;16.34;59.67;101281.19;4960045;28;114467;-65
2021/09/29 06:19:16;;;;;;;6.05;2.33;;;;;;;16.35;59.64;101274.91;4949177;28;124801;-66
2021/09/29 06:21:44;;;;;;;6.13;2.47;;;;;;;16.35;59.62;101277.56;4971587;28;123207;-62
2021/09/29 06:24:12;;;;;;;7.82;2.83;;;;;;;16.35;59.75;101280.25;4955654;28;113024;-64
2021/09/29 06:26:39;;;;;;;6.55;2.63;;;;;;;16.35;59.96;101272.22;4968322;28;114254;-64
2021/09/29 06:29:07;;;;;;;5.20;2.50;;;;;;;16.37;60.00;101272.97;4963467;28;125016;-64
2021/09/29 06:31:34;;;;;;;5.75;2.50;;;;;;;16.37;59.83;101272.97;4970512;28;123858;-64
2021/09/29 06:34:01;;;;;;;6.32;2.58;;;;;;;16.38;60.01;101274.69;4969665;28;115632;-64
2021/09/29 06:36:28;;;;;;;6.15;2.33;;;;;;;16.38;59.82;101269.34;4958044;28;115042;-64
2021/09/29 06:38:55;;;;;;;4.75;2.10;;;;;;;16.38;59.94;101274.69;4971675;28;123962;-64
2021/09/29 06:41:22;;;;;;;5.28;2.10;;;;;;;16.39;60.05;101265.72;4972445;28;123807;-64
2021/09/29 06:43:50;;;;;;;7.63;2.15;;;;;;;16.40;60.20;101262.06;4969495;28;114548;-64
2021/09/29 06:46:17;;;;;;;6.85;1.90;;;;;;;16.41;60.29;101263.81;4972163;28;114332;-65
2021/09/29 06:48:44;;;;;;;6.30;2.25;;;;;;;16.42;60.40;101265.50;4956106;28;123885;-64
2021/09/29 06:51:11;;;;;;;4.65;2.30;;;;;;;16.45;60.31;101253.78;4963895;28;124302;-64
2021/09/29 06:53:39;;;;;;;5.90;2.28;;;;;;;16.48;60.43;101259.78;4964368;28;114126;-64
2021/09/29 06:56:07;;;;;;;5.47;2.13;;;;;;;16.50;60.63;101263.22;4957657;28;113992;-64
2021/09/29 06:58:34;;;;;;;6.30;2.30;;;;;;;16.52;60.53;101261.31;4972744;28;124097;-64
2021/09/29 07:01:02;;;;;;;5.28;2.42;;;;;;;16.54;60.44;101264.75;4973008;28;123725;-64
2021/09/29 07:03:29;;;;;;;7.75;2.30;;;;;;;16.55;60.52;101261.09;4973634;28;114644;-65
2021/09/29 07:05:56;;;;;;;3.63;2.05;;;;;;;16.54;60.33;101259.41;4975052;28;114315;-65
2021/09/29 07:08:24;;;;;;;3.85;2.42;;;;;;;16.53;60.79;101268.38;4968187;28;123882;-65
2021/09/29 07:10:51;;;;;;;4.97;2.30;;;;;;;16.51;60.39;101254.25;4966790;28;123774;-66
2021/09/29 07:13:19;;;;;;;7.53;2.35;;;;;;;16.48;60.56;101259.78;4972964;28;114133;-66
2021/09/29 07:15:46;;;;;;;4.72;2.08;;;;;;;16.47;60.58;101263.41;4962879;28;114411;-66
2021/09/29 07:18:15;;;;;;;6.15;2.30;;;;;;;16.44;60.56;101255.56;4968565;28;124054;-66
2021/09/29 07:20:44;;;;;;;4.00;2.10;;;;;;;16.42;60.62;101261.97;4964827;28;124238;-66
2021/09/29 07:23:12;;;;;;;6.30;2.28;;;;;;;16.38;60.51;101253.28;4953841;28;114439;-67
2021/09/29 07:25:39;;;;;;;4.25;2.22;;;;;;;16.36;60.63;101255.22;4948966;28;113926;-66
2021/09/29 07:28:06;;;;;;;7.03;2.13;;;;;;;16.37;60.76;101250.72;4972827;28;124197;-66
2021/09/29 07:30:34;;;;;;;4.85;2.60;;;;;;;16.36;60.89;101249.88;4957190;28;122739;-66
2021/09/29 07:33:05;;;;;;;4.85;1.98;;;;;;;16.35;60.94;101258.84;4974090;28;114141;-66
2021/09/29 07:35:32;;;;;;;4.50;2.03;;;;;;;16.36;61.08;101255.22;4945610;28;112960;-67
2021/09/29 07:38:01;;;;;;;3.58;1.98;;;;;;;16.38;61.08;101252.44;4973423;28;124035;-67
2021/09/29 07:40:29;;;;;;;4.15;2.25;;;;;;;16.41;61.24;101258.47;4972230;28;124062;-66
2021/09/29 07:42:57;;;;;;;4.65;2.40;;;;;;;16.43;61.12;101261.91;4965717;28;114964;-66
2021/09/29 07:45:24;;;;;;;4.30;2.33;;;;;;;16.45;61.08;101251.97;4968432;28;113996;-66
2021/09/29 07:47:52;;;;;;;5.47;2.13;;;;;;;16.47;61.26;101252.72;4966114;28;124083;-66
2021/09/29 07:50:20;;;;;;;3.55;1.85;;;;;;;16.47;61.38;101258.06;4964470;28;123831;-67
2021/09/29 07:52:48;;;;;;;3.22;1.90;;;;;;;16.49;61.29;101250.81;4954417;28;114591;-66
2021/09/29 07:55:17;;;;;;;4.85;2.08;;;;;;;16.50;61.31;101257.88;4964649;28;114066;-67
2021/09/29 07:57:46;;;;;;;5.53;2.08;;;;;;;16.52;61.53;101255.97;4954256;28;124018;-67
2021/09/29 08:00:15;;;;;;;4.10;1.88;;;;;;;16.54;61.42;101254.06;4971938;28;123840;-67
2021/09/29 08:02:43;;;;;;;3.17;1.80;;;;;;;16.57;61.77;101246.78;4956522;28;114140;-67
2021/09/29 08:05:12;;;;;;;4.70;2.20;;;;;;;16.59;61.65;101256.41;4961816;28;114697;-67
2021/09/29 08:07:44;;;;;;;3.08;1.73;;;;;;;16.63;61.62;101257.09;4973104;28;124651;-67
2021/09/29 08:10:11;;;;;;;2.75;1.85;;;;;;;16.66;61.59;101252.41;4972962;28;124972;-66
2021/09/29 08:12:39;;;;;;;4.40;2.20;;;;;;;16.68;61.54;101249.63;4972108;28;115489;-67
2021/09/29 08:15:12;;;;;;;3.95;2.15;;;;;;;16.72;61.57;101267.19;4965871;28;115105;-66
2021/09/29 08:17:41;;;;;;;4.15;1.98;;;;;;;16.75;61.54;101275.03;4950837;28;123973;-66
2021/09/29 08:20:19;;;;;;;5.80;1.90;;;;;;;16.76;61.61;101282.09;4959895;28;124526;-67
2021/09/29 08:22:53;;;;;;;3.47;1.88;;;;;;;16.78;61.78;101288.19;4972187;28;114700;-66
2021/09/29 08:25:46;;;;;;;3.70;1.93;;;;;;;16.76;61.45;101300.81;4957390;28;113898;-66
2021/09/29 08:28:30;;;;;;;3.78;1.98;;;;;;;16.76;61.38;101300.81;4957687;28;123897;-66
2021/09/29 08:31:03;;;;;;;4.63;1.85;;;;;;;16.75;61.59;101299.13;4974008;28;124181;-66
2021/09/29 08:38:53;;;;;;;2.90;1.80;;;;;;;16.77;61.41;101307.91;4971060;28;124416;-66
2021/09/29 08:41:50;;;;;;;3.28;1.70;;;;;;;16.78;61.50;101309.59;4955609;28;124189;-66
2021/09/29 08:44:28;;;;;;;3.42;1.52;;;;;;;16.79;61.35;101303.31;4960299;28;116114;-66
2021/09/29 08:50:18;;;;;;;2.58;1.75;;;;;;;16.81;61.51;101304.06;4960131;28;124075;-67
2021/09/29 09:14:53;;;;;;;3.42;1.30;;;;;;;16.97;61.07;101324.50;4972245;28;124791;-67
2021/09/29 09:17:35;;;;;;;2.83;1.30;;;;;;;16.95;60.96;101327.28;4970820;28;115502;-66
2021/09/29 09:20:22;;;;;;;2.65;1.10;;;;;;;16.92;60.88;101327.50;4972577;28;114341;-66
2021/09/29 09:22:53;;;;;;;3.70;1.30;;;;;;;16.89;60.90;101327.69;4952463;28;124318;-66
2021/09/29 09:25:38;;;;;;;1.98;1.00;;;;;;;16.85;60.71;101327.00;4960180;28;124537;-67
2021/09/29 09:28:10;;;;;;;2.30;1.30;;;;;;;16.84;60.86;101336.00;4957209;28;114646;-66
2021/09/29 09:30:38;;;;;;;1.63;0.93;;;;;;;16.81;60.66;101333.50;4955918;28;113060;-66
2021/09/29 09:33:06;;;;;;;1.92;1.10;;;;;;;16.79;60.61;101338.09;4957738;28;125593;-66
2021/09/29 09:35:45;;;;;;;2.22;1.10;;;;;;;16.76;60.72;101348.97;4937141;28;123070;-66
2021/09/29 09:38:21;;;;;;;4.78;1.40;;;;;;;16.74;60.79;101342.84;4948753;28;114194;-66
2021/09/29 09:40:57;;;;;;;1.90;1.05;;;;;;;16.70;60.70;101350.22;4973733;28;113904;-67
2021/09/29 09:43:29;;;;;;;2.15;1.15;;;;;;;16.68;60.51;101351.28;4960860;28;123897;-66
2021/09/29 09:46:01;;;;;;;2.58;1.10;;;;;;;16.65;60.62;101356.81;4969836;28;124250;-66
2021/09/29 09:48:30;;;;;;;1.75;1.10;;;;;;;16.62;60.41;101367.72;4964474;28;113816;-66
2021/09/29 09:51:03;;;;;;;2.40;1.08;;;;;;;16.57;60.37;101364.44;4967071;28;114243;-66
2021/09/29 09:53:30;;;;;;;1.80;1.10;;;;;;;16.53;60.61;101369.13;4952757;28;123831;-66
2021/09/29 09:55:58;;;;;;;2.53;1.30;;;;;;;16.50;60.54;101364.84;4969003;28;124285;-67
2021/09/29 09:58:25;;;;;;;2.38;1.48;;;;;;;16.51;60.78;101374.56;4971533;28;116136;-66
2021/09/29 10:01:01;;;;;;;3.92;1.33;;;;;;;16.52;60.87;101372.78;4972284;28;115436;-67
2021/09/29 10:03:28;;;;;;;2.20;1.30;;;;;;;16.52;60.83;101378.97;4970348;28;124018;-66
2021/09/29 10:05:57;;;;;;;2.30;1.60;;;;;;;16.54;60.83;101382.41;4971239;28;124063;-66
2021/09/29 10:08:28;;;;;;;3.10;1.95;;;;;;;16.53;61.05;101386.03;4971322;28;114279;-66
2021/09/29 10:11:03;;;;;;;2.83;2.20;;;;;;;16.52;60.82;101389.66;4971604;28;114625;-66
2021/09/29 10:13:53;;;;;;;3.15;2.40;;;;;;;16.52;60.75;101389.66;4940379;28;123885;-67
2021/09/29 10:27:54;;;;;;;3.58;2.50;;;;;;;16.41;61.02;101401.97;4969330;28;123718;-67
2021/09/29 10:30:33;;;;;;;4.03;2.70;;;;;;;16.42;61.13;101398.34;4948002;28;113108;-67
2021/09/29 10:33:03;;;;;;;3.30;2.90;;;;;;;16.45;61.25;101398.16;4965243;28;113893;-67
2021/09/29 10:35:40;;;;;;;3.63;3.05;;;;;;;16.50;61.32;101391.56;4954868;28;123043;-67
2021/09/29 10:43:27;;;;;;;5.03;4.00;;;;;;;16.59;61.06;101399.97;4973568;28;114681;-66
2021/09/29 10:46:17;;;;;;;7.03;4.35;;;;;;;16.60;61.04;101396.38;4970929;28;123915;-67
2021/09/29 11:28:30;;;;;;;4.30;1.60;;;;;;;16.28;60.20;101444.63;4965520;28;114041;-67
2021/09/29 11:31:20;;;;;;;1.67;1.27;;;;;;;16.25;59.94;101453.66;4963961;28;124448;-67
2021/09/29 11:34:02;;;;;;;1.58;1.20;;;;;;;16.23;60.04;101441.34;4958019;28;123738;-68
2021/09/29 12:12:30;;;;;;;1.85;0.70;;;;;;;15.55;59.91;101493.28;4974420;28;113721;-68
2021/09/29 12:14:59;;;;;;;2.78;0.80;;;;;;;15.59;60.02;101494.81;4966005;28;124146;-68
2021/09/29 12:17:31;;;;;;;0.88;0.68;;;;;;;15.63;59.94;101491.03;4965793;28;124515;-68
2021/09/29 12:20:12;;;;;;;3.83;0.80;;;;;;;15.67;59.79;101503.28;4967579;28;114555;-68
2021/09/29 12:22:51;;;;;;;1.65;0.80;;;;;;;15.68;59.68;101499.66;4951257;28;112948;-68
2021/09/29 12:26:18;;;;;;;1.52;0.70;;;;;;;15.69;59.56;101501.38;4962245;28;124529;-68
2021/09/29 12:33:52;;;;;;;1.30;0.85;;;;;;;15.71;59.36;101520.00;4959287;28;113901;-68
2021/09/29 12:36:34;;;;;;;1.90;1.10;;;;;;;15.70;59.44;101524.47;4973199;28;123732;-67
2021/09/29 12:39:14;;;;;;;3.50;1.05;;;;;;;15.73;59.37;101524.34;4959491;28;124381;-67
2021/09/29 12:41:49;;;;;;;1.70;1.00;;;;;;;15.74;59.66;101520.69;4963841;28;114675;-68
2021/09/29 12:44:18;;;;;;;1.42;0.93;;;;;;;15.76;59.47;101529.50;4971620;28;114854;-68
2021/09/29 12:46:51;;;;;;;3.97;1.10;;;;;;;15.77;59.59;101528.56;4973892;28;124083;-68
2021/09/29 12:49:21;;;;;;;3.67;1.10;;;;;;;15.81;59.60;101536.41;4968091;28;124244;-68
2021/09/29 12:52:00;;;;;;;1.27;1.00;;;;;;;15.85;59.77;101537.94;4961796;28;114126;-68
2021/09/29 12:54:28;;;;;;;2.42;0.95;;;;;;;15.89;59.87;101539.50;4973769;28;113858;-68
2021/09/29 12:56:55;;;;;;;2.33;1.10;;;;;;;15.94;59.98;101542.78;4963537;28;123895;-68
2021/09/29 12:59:22;;;;;;;2.50;1.30;;;;;;;16.01;59.96;101549.50;4954946;28;124014;-68
2021/09/29 13:01:49;;;;;;;2.58;1.48;;;;;;;16.07;60.03;101549.16;4962446;28;114230;-68
2021/09/29 13:04:18;;;;;;;2.15;1.42;;;;;;;16.13;59.94;101548.78;4971231;28;114519;-69
2021/09/29 13:06:45;;;;;;;3.47;1.33;;;;;;;16.19;60.12;101531.53;4973406;28;124244;-68
2021/09/29 13:09:12;;;;;;;5.32;1.40;;;;;;;16.23;59.97;101548.25;4973087;28;124246;-71
2021/09/29 13:11:39;;;;;;;3.88;1.73;;;;;;;16.28;60.14;101548.88;4953334;28;114560;-68
2021/09/29 13:14:06;;;;;;;4.53;1.70;;;;;;;16.33;60.15;101549.44;4952208;28;114266;-69
2021/09/29 13:16:33;;;;;;;3.75;1.65;;;;;;;16.37;60.04;101561.72;4958965;28;125105;-69
2021/09/29 13:19:25;;;;;;;3.38;1.30;;;;;;;16.42;60.00;101559.59;4961837;28;123730;-68
2021/09/29 13:22:05;;;;;;;4.28;1.30;;;;;;;16.46;59.67;101566.53;4963743;28;96790;-68
2021/09/29 13:27:23;;;;;;;2.50;1.20;;;;;;;16.47;59.26;101570.91;4973918;28;123919;-68
2021/09/29 13:38:29;;;;;;;3.38;1.27;;;;;;;16.45;59.19;101596.88;4969611;28;123867;-68
2021/09/29 13:40:56;;;;;;;3.05;1.02;;;;;;;16.46;59.12;101587.91;4952901;28;123923;-68
2021/09/29 13:43:23;;;;;;;3.88;1.10;;;;;;;16.49;59.02;101593.06;4960220;28;114435;-68
2021/09/29 13:45:50;;;;;;;3.00;1.20;;;;;;;16.51;58.95;101606.34;4969213;28;113881;-68
2021/09/29 13:48:19;;;;;;;5.78;1.60;;;;;;;16.52;59.07;101603.59;4972425;28;124437;-68